createdAt,value
2022-07-29T00:03:19.636Z,64.69
2022-07-29T00:08:21.174Z,64.88
2022-07-29T00:13:32.201Z,66.77
2022-07-29T00:18:34.233Z,68.57
2022-07-29T00:23:36.897Z,66.15
2022-07-29T00:28:38.500Z,67.20
2022-07-29T00:33:39.996Z,66.89
2022-07-29T00:38:41.430Z,68.03
2022-07-29T00:43:43.482Z,68.48
2022-07-29T00:48:44.951Z,68.53
2022-07-29T00:53:46.450Z,68.31
2022-07-29T00:58:49.109Z,66.85
2022-07-29T01:03:51.042Z,66.34
2022-07-29T01:08:52.725Z,67.40
2022-07-29T01:13:54.518Z,67.53
2022-07-29T01:19:08.526Z,66.54
2022-07-29T01:24:31.143Z,66.48
2022-07-29T01:29:49.925Z,66.68
2022-07-29T01:34:56.722Z,66.39
2022-07-29T01:40:01.018Z,65.44
2022-07-29T01:45:07.049Z,66.83
2022-07-29T01:50:13.352Z,67.34
2022-07-29T01:55:17.447Z,66.93
2022-07-29T02:00:19.778Z,67.41
2022-07-29T02:05:23.418Z,68.21
2022-07-29T02:10:27.891Z,68.15
2022-07-29T02:15:32.764Z,69.95
2022-07-29T02:20:34.761Z,69.41
2022-07-29T02:25:38.092Z,69.78
2022-07-29T02:30:42.786Z,70.43
2022-07-29T02:35:45.923Z,71.94
2022-07-29T02:40:47.865Z,72.26
2022-07-29T02:45:52.608Z,74.29
2022-07-29T02:51:06.084Z,75.11
2022-07-29T02:56:12.116Z,76.38
2022-07-29T03:01:21.913Z,72.28
2022-07-29T03:06:37.646Z,71.68
2022-07-29T03:11:50.075Z,72.45
2022-07-29T03:16:53.062Z,72.61
2022-07-29T03:21:57.619Z,72.28
2022-07-29T03:26:59.495Z,72.53
2022-07-29T03:32:07.986Z,73.94
2022-07-29T03:37:10.266Z,74.06
2022-07-29T03:42:14.978Z,74.52
2022-07-29T03:47:19.319Z,73.58
2022-07-29T03:52:23.537Z,71.48
2022-07-29T03:57:26.171Z,69.60
2022-07-29T04:02:30.664Z,67.72
2022-07-29T04:07:35.349Z,68.93
2022-07-29T04:12:36.951Z,68.09
2022-07-29T04:17:38.614Z,66.63
2022-07-29T04:22:41.072Z,67.04
2022-07-29T04:27:42.526Z,67.26
2022-07-29T04:32:44.200Z,66.67
2022-07-29T04:37:45.649Z,68.05
2022-07-29T04:42:47.832Z,67.08
2022-07-29T04:47:50.023Z,66.04
2022-07-29T04:52:51.988Z,66.20
2022-07-29T04:57:53.406Z,64.62
2022-07-29T05:02:58.113Z,64.31
2022-07-29T05:08:02.669Z,64.26
2022-07-29T05:13:05.488Z,63.42
2022-07-29T05:18:10.109Z,62.88
2022-07-29T05:23:11.811Z,62.99
2022-07-29T05:28:13.593Z,63.19
2022-07-29T05:33:34.286Z,62.19
2022-07-29T05:38:38.404Z,61.87
2022-07-29T05:43:40.119Z,61.60
2022-07-29T05:48:41.850Z,61.26
2022-07-29T05:53:43.682Z,59.96
2022-07-29T05:58:45.456Z,60.74
2022-07-29T06:03:49.575Z,60.20
2022-07-29T06:08:51.427Z,60.32
2022-07-29T06:13:53.205Z,59.70
2022-07-29T06:18:58.136Z,58.16
2022-07-29T06:24:05.724Z,59.52
2022-07-29T06:29:27.020Z,57.79
2022-07-29T06:34:32.973Z,58.77
2022-07-29T06:39:47.766Z,58.67
2022-07-29T06:44:49.615Z,60.38
2022-07-29T06:49:51.499Z,59.48
2022-07-29T06:54:53.696Z,61.77
2022-07-29T06:59:58.478Z,62.35
2022-07-29T07:05:07.076Z,62.83
2022-07-29T07:10:11.348Z,63.74
2022-07-29T07:15:38.940Z,61.94
2022-07-29T07:20:51.474Z,60.42
2022-07-29T07:25:57.364Z,61.33
2022-07-29T07:31:27.749Z,62.05
2022-07-29T07:36:42.686Z,62.49
2022-07-29T07:41:45.586Z,62.45
2022-07-29T07:47:12.502Z,61.60
2022-07-29T07:52:16.369Z,63.43
2022-07-29T07:57:18.121Z,63.64
2022-07-29T08:02:19.701Z,63.50
2022-07-29T08:08:25.509Z,65.46
2022-07-29T08:13:28.166Z,66.38
2022-07-29T08:29:52.517Z,67.49
2022-07-29T08:40:11.819Z,66.65
2022-07-29T08:50:46.406Z,63.62
2022-07-29T08:55:49.976Z,64.25
2022-07-29T09:00:56.433Z,64.07
2022-07-29T09:06:00.533Z,63.71
2022-07-29T09:11:03.887Z,63.48
2022-07-29T09:16:09.401Z,64.93
2022-07-29T09:21:16.253Z,67.33
2022-07-29T09:26:18.087Z,68.87
2022-07-29T09:31:34.543Z,69.69
2022-07-29T09:36:45.018Z,70.84
2022-07-29T09:41:47.899Z,67.09
2022-07-29T09:47:02.733Z,62.44
2022-07-29T10:36:01.746Z,53.67
2022-07-29T10:41:22.249Z,53.53
2022-07-29T10:47:20.772Z,50.15
2022-07-29T10:58:25.177Z,31.05
2022-07-29T11:15:31.680Z,30.01
2022-07-29T13:56:35.559Z,32.24
2022-07-29T14:12:15.173Z,33.50
2022-07-29T14:53:12.419Z,35.66
2022-07-29T14:58:37.752Z,35.06
2022-07-29T15:03:57.998Z,36.92
2022-07-29T15:14:39.617Z,34.08
2022-07-29T15:19:44.927Z,36.39
2022-07-29T15:24:46.760Z,36.86
2022-07-29T15:29:48.464Z,36.69
2022-07-29T15:34:50.056Z,37.27
2022-07-29T15:39:51.561Z,36.03
2022-07-29T15:44:53.195Z,35.37
2022-07-29T15:49:57.429Z,36.34
2022-07-29T15:54:59.150Z,36.66
2022-07-29T16:00:00.718Z,36.42
2022-07-29T16:05:02.346Z,37.47
2022-07-29T16:10:04.332Z,36.45
2022-07-29T16:15:09.740Z,36.27
2022-07-29T16:20:13.793Z,36.82
2022-07-29T16:25:15.796Z,36.28
2022-07-29T16:30:17.520Z,37.23
2022-07-29T16:35:19.167Z,37.18
2022-07-29T16:40:22.171Z,37.25
2022-07-29T16:45:23.858Z,38.62
2022-07-29T16:50:37.032Z,39.02
2022-07-29T16:55:42.653Z,38.47
2022-07-29T17:17:03.441Z,38.60
2022-07-29T17:22:15.871Z,39.14
2022-07-29T17:27:29.102Z,38.72
2022-07-29T17:32:31.262Z,40.29
2022-07-29T17:37:35.779Z,40.27
2022-07-29T17:42:37.533Z,41.05
2022-07-29T17:47:39.083Z,40.41
2022-07-29T17:52:46.008Z,41.51
2022-07-29T17:57:51.698Z,41.67
2022-07-29T18:02:55.452Z,40.90
2022-07-29T18:07:57.345Z,42.91
2022-07-29T18:46:58.256Z,47.15
2022-07-29T18:52:00.016Z,47.89
2022-07-29T18:57:01.772Z,48.73
2022-07-29T19:02:23.426Z,48.08
2022-07-29T19:07:25.040Z,48.97
2022-07-29T19:12:26.555Z,49.32
2022-07-29T19:17:28.109Z,50.28
2022-07-29T19:22:29.638Z,50.71
2022-07-29T19:27:31.258Z,51.28
2022-07-29T19:32:32.742Z,51.82
2022-07-29T19:37:34.247Z,52.00
2022-07-29T19:42:35.718Z,52.92
2022-07-29T19:47:37.272Z,53.28
2022-07-29T19:52:39.029Z,54.48
2022-07-29T19:57:41.970Z,54.76
2022-07-29T20:02:43.600Z,55.94
2022-07-29T20:07:45.439Z,56.23
2022-07-29T20:12:46.862Z,57.49
2022-07-29T20:17:56.912Z,58.40
2022-07-29T20:22:58.745Z,60.02
2022-07-29T20:28:00.420Z,61.12
2022-07-29T20:33:01.962Z,61.86
2022-07-29T20:38:03.525Z,62.47
2022-07-29T20:43:04.921Z,62.39
2022-07-29T20:48:06.662Z,63.71
2022-07-29T20:53:09.956Z,64.58
2022-07-29T20:58:11.512Z,63.78
2022-07-29T21:03:13.131Z,64.04
2022-07-29T21:08:14.859Z,64.86
2022-07-29T21:13:16.418Z,64.94
2022-07-29T21:18:18.861Z,65.23
2022-07-29T21:23:20.678Z,65.27
2022-07-29T21:28:22.706Z,66.04
2022-07-29T21:33:25.159Z,67.07
2022-07-29T21:38:27.084Z,65.89
2022-07-29T21:43:28.762Z,66.79
2022-07-29T21:48:30.480Z,66.84
2022-07-29T21:53:31.964Z,67.22
2022-07-29T22:16:48.328Z,68.80
2022-07-29T22:22:00.997Z,69.42
2022-07-29T22:27:15.234Z,70.30
2022-07-29T22:32:31.562Z,69.35
2022-07-29T22:37:37.290Z,70.53
2022-07-29T22:43:03.214Z,70.95
2022-07-29T23:00:00.830Z,73.29
2022-07-29T23:05:47.770Z,73.28
2022-07-29T23:16:37.628Z,75.49
2022-07-29T23:21:48.140Z,76.25
2022-07-29T23:27:34.154Z,76.63
2022-07-29T23:33:00.821Z,78.11
2022-07-29T23:44:18.819Z,79.99
2022-07-29T23:49:41.089Z,80.85
